Airport View

Enter AWOS ICAO identifier for current METAR.

ex. KFNL

KLIC 031655Z AUTO 18011G20KT 10SM CLR 26/12 A3022 RMK AO2 SLP154 T02610122

3 Jul 2020 17:35

Frequency: 121.125

Phone: 719-775-0515

Other Area AWOS: KMNH - KFLY - KFTG - KCOS

TAF KCOS 031143Z 0312/0412 36005KT P6SM FEW120 FEW200 FM031600 09007KT P6SM SCT100 FM031800 12010G20KT P6SM VCTS SCT050CB SCT100 FM032000 16010G20KT P6SM VCTS SCT050CB BKN100 TEMPO 0320/0322 5SM -TSRA BKN050CB FM040300 34012KT P6SM BKN100 FM040800 03005KT P6SM BKN250